Time;durP1;ratioP1;P1;durP2;ratioP2;P2;SDS_P1;SDS_P2;PMS_P1;PMS_P2;Temp;Humidity;BMP_temperature;BMP_pressure;BME280_temperature;BME280_humidity;BME280_pressure;Samples;Min_cycle;Max_cycle;Signal;HPM_P1;HPM_P2
2022/12/18 00:02:15;;;;;;;7.82;6.00;;;22.90;45.60;;;;;;5050322;28;20021;-68
2022/12/18 00:04:41;;;;;;;7.07;5.60;;;22.90;45.60;;;;;;5046198;28;20033;-67
2022/12/18 00:07:06;;;;;;;6.97;5.32;;;22.80;45.60;;;;;;5044210;28;20026;-67
2022/12/18 00:09:32;;;;;;;6.65;5.75;;;22.80;45.60;;;;;;5041071;28;20104;-68
2022/12/18 00:11:58;;;;;;;7.95;5.55;;;22.70;45.80;;;;;;5040160;28;20064;-67
2022/12/18 00:14:24;;;;;;;7.70;5.78;;;22.70;45.70;;;;;;5051995;28;20469;-68
2022/12/18 00:16:49;;;;;;;6.63;5.35;;;22.70;45.70;;;;;;5026241;28;20029;-68
2022/12/18 00:19:16;;;;;;;7.30;5.78;;;22.70;45.80;;;;;;5061647;28;20020;-68
2022/12/18 00:21:43;;;;;;;7.18;5.88;;;22.60;45.80;;;;;;5050004;28;20124;-67
2022/12/18 00:24:10;;;;;;;7.40;5.95;;;22.60;45.80;;;;;;5051558;28;20104;-68
2022/12/18 00:26:37;;;;;;;7.68;5.88;;;22.60;45.80;;;;;;5048616;28;20391;-67
2022/12/18 00:29:06;;;;;;;7.53;5.60;;;22.60;45.90;;;;;;5055816;28;20021;-68
2022/12/18 00:31:32;;;;;;;7.68;6.25;;;22.50;45.90;;;;;;5052010;28;20054;-68
2022/12/18 00:33:58;;;;;;;8.13;6.07;;;22.50;45.80;;;;;;5049449;28;20038;-66
2022/12/18 00:36:27;;;;;;;7.38;5.50;;;22.50;45.90;;;;;;5049581;28;20404;-65
2022/12/18 00:38:57;;;;;;;7.65;5.60;;;22.40;45.90;;;;;;5055244;28;20025;-65
2022/12/18 00:44:11;;;;;;;6.88;5.57;;;22.30;46.00;;;;;;5057288;28;20094;-68
2022/12/18 00:46:37;;;;;;;8.37;5.93;;;22.30;46.00;;;;;;5055412;28;20029;-66
2022/12/18 00:49:03;;;;;;;8.27;6.00;;;22.20;46.60;;;;;;5050965;28;20287;-68
2022/12/18 00:51:28;;;;;;;7.25;5.50;;;22.20;46.10;;;;;;5049364;28;20317;-68
2022/12/18 00:53:54;;;;;;;7.40;5.90;;;22.20;46.10;;;;;;5049622;28;20036;-68
2022/12/18 00:56:20;;;;;;;7.60;5.65;;;22.10;46.10;;;;;;5051425;28;20668;-68
2022/12/18 00:58:45;;;;;;;7.43;5.97;;;22.10;46.10;;;;;;5052756;28;20356;-68
2022/12/18 01:01:11;;;;;;;8.00;6.65;;;22.00;46.20;;;;;;5057829;28;20060;-68
2022/12/18 01:03:37;;;;;;;7.43;5.80;;;22.00;46.30;;;;;;5038471;28;20464;-68
2022/12/18 01:06:11;;;;;;;7.47;5.90;;;21.90;46.30;;;;;;5048578;28;20040;-68
2022/12/18 01:08:37;;;;;;;7.28;5.70;;;21.90;46.30;;;;;;5054103;28;20136;-66
2022/12/18 01:11:12;;;;;;;6.95;5.65;;;21.80;46.30;;;;;;5054654;28;20029;-68
2022/12/18 01:13:38;;;;;;;7.18;5.80;;;21.80;46.40;;;;;;5057761;28;20029;-66
2022/12/18 01:16:05;;;;;;;7.07;5.38;;;21.80;46.40;;;;;;5049645;28;20072;-66
2022/12/18 01:18:30;;;;;;;6.78;5.28;;;21.70;46.50;;;;;;5055201;28;20080;-66
2022/12/18 01:20:56;;;;;;;7.00;5.25;;;21.70;46.60;;;;;;5051656;28;20025;-67
2022/12/18 01:23:22;;;;;;;7.00;5.50;;;21.60;46.60;;;;;;5049018;28;20139;-66
2022/12/18 01:25:47;;;;;;;7.00;5.30;;;21.60;46.70;;;;;;5058690;28;20025;-68
2022/12/18 01:28:13;;;;;;;8.00;5.78;;;21.60;46.60;;;;;;5053726;28;20033;-65
2022/12/18 01:30:39;;;;;;;6.80;5.32;;;21.50;46.60;;;;;;5049660;28;20103;-68
2022/12/18 01:33:05;;;;;;;7.57;5.90;;;21.50;46.70;;;;;;5039853;28;20029;-68
2022/12/18 01:35:31;;;;;;;7.00;5.57;;;21.50;47.20;;;;;;5051578;28;20029;-68
2022/12/18 01:37:57;;;;;;;6.55;5.63;;;21.40;46.70;;;;;;5060272;28;20021;-68
2022/12/18 01:40:23;;;;;;;6.82;5.57;;;21.40;46.70;;;;;;5054562;28;20052;-67
2022/12/18 01:42:52;;;;;;;6.95;5.45;;;21.40;46.80;;;;;;5062846;28;20056;-68
2022/12/18 01:45:24;;;;;;;7.18;5.32;;;21.30;46.80;;;;;;5053958;28;20391;-68
2022/12/18 01:48:03;;;;;;;6.25;4.85;;;21.30;46.90;;;;;;5051759;28;20427;-68
2022/12/18 01:50:41;;;;;;;6.65;4.93;;;21.30;47.00;;;;;;5045752;28;20203;-66
2022/12/18 01:53:11;;;;;;;6.68;4.95;;;21.20;46.90;;;;;;5055296;28;20027;-66
2022/12/18 01:55:43;;;;;;;6.22;4.78;;;21.20;46.90;;;;;;5055908;28;20484;-66
2022/12/18 01:58:09;;;;;;;7.10;5.50;;;21.20;47.00;;;;;;5059435;28;20024;-66
2022/12/18 02:00:35;;;;;;;6.97;5.72;;;21.20;47.10;;;;;;5053387;28;20029;-66
2022/12/18 02:03:00;;;;;;;7.90;5.53;;;21.10;47.00;;;;;;5058143;28;20162;-66
2022/12/18 02:05:50;;;;;;;6.72;5.50;;;21.10;47.10;;;;;;5052648;28;20028;-66
2022/12/18 02:08:25;;;;;;;6.88;5.43;;;21.10;47.10;;;;;;5059442;28;20122;-66
2022/12/18 02:10:59;;;;;;;7.28;5.50;;;21.00;47.10;;;;;;5049600;28;20029;-66
2022/12/18 02:13:50;;;;;;;6.63;5.30;;;21.00;47.20;;;;;;5057659;28;20035;-66
2022/12/18 02:16:36;;;;;;;7.18;5.50;;;21.00;47.30;;;;;;5058058;28;20025;-66
2022/12/18 02:19:11;;;;;;;7.43;5.78;;;21.00;47.20;;;;;;5060381;28;20021;-66
2022/12/18 02:21:51;;;;;;;5.95;4.70;;;20.90;47.20;;;;;;5050026;28;20508;-65
2022/12/18 02:24:35;;;;;;;6.75;5.47;;;20.90;47.30;;;;;;5052154;28;20021;-66
2022/12/18 02:27:06;;;;;;;6.72;5.35;;;20.90;47.30;;;;;;5051747;28;20028;-66
2022/12/18 02:29:40;;;;;;;7.20;5.25;;;20.90;47.30;;;;;;5059742;28;20020;-66
2022/12/18 02:32:12;;;;;;;7.30;5.63;;;20.80;47.30;;;;;;5053587;28;20082;-66
2022/12/18 02:34:39;;;;;;;7.05;5.32;;;20.80;47.40;;;;;;5046882;28;20477;-66
2022/12/18 02:37:10;;;;;;;6.95;5.60;;;20.80;47.40;;;;;;5045435;28;20152;-66
2022/12/18 02:39:38;;;;;;;7.10;5.15;;;20.80;47.50;;;;;;5048855;28;20025;-68
2022/12/18 02:42:07;;;;;;;7.00;5.43;;;20.70;47.40;;;;;;5055270;28;20020;-66
2022/12/18 02:44:47;;;;;;;7.03;5.78;;;20.70;47.50;;;;;;5055997;28;20021;-65
2022/12/18 02:47:15;;;;;;;6.22;5.20;;;20.70;47.50;;;;;;5043947;28;20021;-68
2022/12/18 02:50:14;;;;;;;6.97;5.40;;;20.70;47.60;;;;;;5052121;28;20098;-68
2022/12/18 02:53:04;;;;;;;6.40;4.80;;;20.70;47.50;;;;;;5049842;28;20028;-67
2022/12/18 02:55:49;;;;;;;5.80;5.00;;;20.60;47.50;;;;;;5054216;28;20033;-67
2022/12/18 02:58:52;;;;;;;6.43;4.90;;;20.60;47.60;;;;;;5052506;28;20139;-67
2022/12/18 03:01:50;;;;;;;5.90;4.80;;;20.50;47.50;;;;;;5049590;28;20037;-67
2022/12/18 03:04:18;;;;;;;7.30;5.03;;;20.60;48.20;;;;;;5029394;28;20181;-67
2022/12/18 03:06:49;;;;;;;6.53;4.93;;;20.50;47.70;;;;;;5054312;28;20081;-68
2022/12/18 03:09:21;;;;;;;5.53;4.80;;;20.50;47.70;;;;;;5056708;28;20112;-67
2022/12/18 03:14:47;;;;;;;6.07;4.95;;;20.50;47.80;;;;;;5055927;28;20083;-68
2022/12/18 03:17:17;;;;;;;5.88;4.72;;;20.40;47.80;;;;;;5051507;28;20025;-67
2022/12/18 03:19:46;;;;;;;5.68;4.55;;;20.40;47.80;;;;;;5049025;28;20086;-68
2022/12/18 03:22:13;;;;;;;5.60;4.32;;;20.40;47.90;;;;;;5049792;28;20052;-67
2022/12/18 03:24:39;;;;;;;5.78;4.50;;;20.40;47.90;;;;;;5056032;28;20021;-67
2022/12/18 03:27:11;;;;;;;5.80;4.63;;;20.40;47.90;;;;;;5050311;28;20048;-67
2022/12/18 03:29:48;;;;;;;5.70;4.53;;;20.30;47.80;;;;;;5051525;28;20100;-68
2022/12/18 03:32:26;;;;;;;6.00;4.55;;;20.40;47.90;;;;;;5046928;28;20495;-68
2022/12/18 03:34:54;;;;;;;6.18;5.00;;;20.30;47.90;;;;;;5048361;28;20499;-68
2022/12/18 03:37:20;;;;;;;6.10;4.80;;;20.30;48.00;;;;;;5047210;28;20017;-68
2022/12/18 03:39:46;;;;;;;6.50;4.85;;;20.30;48.00;;;;;;5050780;28;20051;-67
2022/12/18 03:42:29;;;;;;;5.80;4.40;;;20.30;48.10;;;;;;5049317;28;20425;-67
2022/12/18 03:44:58;;;;;;;5.82;4.68;;;20.30;48.00;;;;;;5057326;28;20020;-67
2022/12/18 03:47:49;;;;;;;6.28;5.13;;;20.20;48.10;;;;;;5046086;28;20026;-68
2022/12/18 03:50:50;;;;;;;7.50;5.45;;;20.30;48.10;;;;;;5051764;28;20542;-67
2022/12/18 03:53:28;;;;;;;6.13;4.75;;;20.20;48.10;;;;;;5026185;28;20053;-67
2022/12/18 03:55:55;;;;;;;7.10;4.38;;;20.20;48.10;;;;;;5046734;28;20107;-67
2022/12/18 03:58:25;;;;;;;6.97;4.57;;;20.20;48.20;;;;;;5045904;28;20048;-67
2022/12/18 04:00:53;;;;;;;6.07;4.40;;;20.10;48.30;;;;;;5049784;28;20490;-68
2022/12/18 04:03:20;;;;;;;6.10;4.45;;;20.10;48.30;;;;;;5051958;28;20115;-67
2022/12/18 04:05:50;;;;;;;5.50;4.15;;;20.10;48.30;;;;;;5051564;28;20036;-67
2022/12/18 04:08:15;;;;;;;;;;;20.10;48.40;;;;;;5037495;28;20029;-67
2022/12/18 04:10:41;;;;;;;5.85;4.32;;;20.10;48.30;;;;;;5049074;28;19905;-67
2022/12/18 04:13:07;;;;;;;5.88;4.53;;;20.10;48.40;;;;;;5044998;28;20033;-68
2022/12/18 04:15:35;;;;;;;5.40;4.07;;;20.10;48.50;;;;;;5049667;28;20032;-68
2022/12/18 04:18:00;;;;;;;5.07;4.10;;;20.00;48.50;;;;;;5037088;28;20577;-67
2022/12/18 04:20:26;;;;;;;5.22;4.00;;;20.00;48.50;;;;;;5043544;28;20029;-67
2022/12/18 04:22:51;;;;;;;5.40;4.00;;;20.00;48.60;;;;;;5067744;28;20040;-67
2022/12/18 04:25:17;;;;;;;5.47;4.00;;;20.00;48.60;;;;;;5053772;28;20393;-67
2022/12/18 04:27:42;;;;;;;5.05;3.83;;;20.00;48.70;;;;;;5045914;28;20026;-67
2022/12/18 04:30:08;;;;;;;5.20;4.00;;;20.00;48.70;;;;;;5051321;28;20082;-67
2022/12/18 04:32:35;;;;;;;4.90;4.05;;;19.90;48.70;;;;;;5051543;28;20016;-68
2022/12/18 04:35:00;;;;;;;5.65;4.32;;;19.90;48.80;;;;;;5042085;28;20029;-68
2022/12/18 04:37:26;;;;;;;5.45;4.13;;;19.90;48.80;;;;;;5055765;28;20555;-67
2022/12/18 04:39:52;;;;;;;5.30;3.95;;;19.90;48.80;;;;;;5046856;28;20025;-67
2022/12/18 04:42:17;;;;;;;5.32;4.35;;;19.90;48.80;;;;;;5054686;28;20029;-67
2022/12/18 04:44:43;;;;;;;6.22;4.93;;;19.90;48.80;;;;;;5038042;28;20018;-67
2022/12/18 04:47:08;;;;;;;7.22;5.13;;;19.80;48.80;;;;;;5042328;28;20017;-67
2022/12/18 04:49:34;;;;;;;5.35;4.35;;;19.80;48.90;;;;;;5055498;28;20020;-68
2022/12/18 04:52:00;;;;;;;6.00;4.45;;;19.80;48.90;;;;;;5049796;28;20032;-67
2022/12/18 04:54:25;;;;;;;5.45;4.55;;;19.80;48.90;;;;;;5043919;28;20027;-67
2022/12/18 04:56:51;;;;;;;6.35;4.20;;;19.80;49.00;;;;;;5047598;28;20478;-67
2022/12/18 04:59:16;;;;;;;6.15;4.72;;;19.80;49.00;;;;;;5060395;28;20020;-67
2022/12/18 05:01:42;;;;;;;5.80;4.18;;;19.80;49.00;;;;;;5054514;28;20099;-67
2022/12/18 05:04:08;;;;;;;6.25;4.70;;;19.80;49.20;;;;;;5050080;28;20018;-67
2022/12/18 05:06:33;;;;;;;4.90;4.00;;;19.80;49.10;;;;;;5045370;28;20033;-68
2022/12/18 05:08:59;;;;;;;5.85;4.72;;;19.80;49.10;;;;;;5063797;28;20025;-68
2022/12/18 05:11:25;;;;;;;5.20;3.95;;;19.70;49.10;;;;;;5040088;28;20124;-67
2022/12/18 05:13:51;;;;;;;5.60;4.30;;;19.70;49.10;;;;;;5050229;28;20045;-68
2022/12/18 05:16:16;;;;;;;6.57;4.30;;;19.70;49.20;;;;;;5054756;28;20115;-67
2022/12/18 05:18:42;;;;;;;5.20;4.18;;;19.70;49.30;;;;;;5038571;28;20055;-68
2022/12/18 05:21:08;;;;;;;5.40;4.20;;;19.70;49.80;;;;;;5050021;28;20043;-68
2022/12/18 05:23:34;;;;;;;5.43;4.30;;;19.70;49.30;;;;;;5053389;28;20037;-67
2022/12/18 05:26:01;;;;;;;5.10;4.00;;;19.70;49.30;;;;;;5036088;28;20028;-67
2022/12/18 05:28:29;;;;;;;5.38;4.03;;;19.70;49.30;;;;;;5053791;28;20021;-67
2022/12/18 05:30:57;;;;;;;5.35;4.15;;;19.70;49.70;;;;;;5051880;28;20112;-67
2022/12/18 05:33:25;;;;;;;4.97;4.03;;;19.60;49.30;;;;;;5050345;28;20389;-67
2022/12/18 05:35:56;;;;;;;5.43;4.17;;;19.60;49.40;;;;;;5057490;28;20082;-67
2022/12/18 05:38:23;;;;;;;4.90;4.05;;;19.60;49.40;;;;;;5052175;28;20025;-68
2022/12/18 05:40:50;;;;;;;6.28;4.30;;;19.60;49.40;;;;;;5051263;28;20035;-68
2022/12/18 05:43:16;;;;;;;5.53;4.20;;;19.60;49.40;;;;;;5054448;28;20056;-67
2022/12/18 05:45:42;;;;;;;5.00;3.88;;;19.60;49.40;;;;;;5050310;28;20028;-68
2022/12/18 05:48:08;;;;;;;5.00;4.05;;;19.60;49.40;;;;;;5050415;28;20472;-67
2022/12/18 05:50:36;;;;;;;5.05;3.90;;;19.60;49.40;;;;;;5051337;28;20031;-68
2022/12/18 05:53:02;;;;;;;5.45;4.10;;;19.60;49.40;;;;;;5049083;28;20392;-67
2022/12/18 05:55:28;;;;;;;5.50;4.25;;;19.60;49.40;;;;;;5053047;28;20099;-67
2022/12/18 05:57:54;;;;;;;5.00;3.97;;;19.60;49.50;;;;;;5051591;28;20033;-67
2022/12/18 06:00:19;;;;;;;5.07;4.18;;;19.60;49.50;;;;;;5057403;28;20013;-67
2022/12/18 06:02:48;;;;;;;5.70;4.30;;;19.60;49.50;;;;;;5058448;28;20025;-67
2022/12/18 06:05:14;;;;;;;6.07;4.38;;;19.60;49.40;;;;;;5053607;28;20504;-68
2022/12/18 06:07:40;;;;;;;5.68;4.47;;;19.50;49.40;;;;;;5052493;28;20025;-67
2022/12/18 06:10:06;;;;;;;5.32;4.43;;;19.50;49.40;;;;;;5053296;28;20450;-68
2022/12/18 06:12:33;;;;;;;6.45;4.78;;;19.50;49.40;;;;;;5048842;28;20441;-67
2022/12/18 06:15:00;;;;;;;5.45;4.40;;;19.50;49.40;;;;;;5048005;28;20039;-68
2022/12/18 06:17:32;;;;;;;5.82;4.20;;;19.50;49.40;;;;;;5041330;28;20075;-67
2022/12/18 06:19:58;;;;;;;5.20;4.20;;;19.50;49.40;;;;;;5055761;28;20025;-67
2022/12/18 06:22:24;;;;;;;5.97;4.70;;;19.50;49.40;;;;;;5052841;28;20048;-67
2022/12/18 06:24:50;;;;;;;5.78;4.35;;;19.50;49.50;;;;;;5047937;28;20090;-67
2022/12/18 06:27:16;;;;;;;5.53;4.40;;;19.50;49.50;;;;;;5039104;28;20424;-67
2022/12/18 06:29:42;;;;;;;5.45;4.30;;;19.50;49.40;;;;;;5055577;28;20105;-67
2022/12/18 06:32:07;;;;;;;5.75;4.50;;;19.50;49.40;;;;;;5053908;28;20383;-67
2022/12/18 06:34:33;;;;;;;5.43;4.13;;;19.50;49.40;;;;;;5048624;28;20091;-68
2022/12/18 06:36:59;;;;;;;5.68;4.47;;;19.50;49.30;;;;;;5044108;28;20032;-67
2022/12/18 06:39:27;;;;;;;5.95;4.32;;;19.50;49.20;;;;;;5063063;28;20368;-67
2022/12/18 06:41:53;;;;;;;5.30;4.20;;;19.50;49.10;;;;;;5052643;28;20545;-68
2022/12/18 06:44:19;;;;;;;6.10;4.82;;;19.50;49.10;;;;;;5051324;28;20105;-67
2022/12/18 06:46:44;;;;;;;5.43;4.15;;;19.50;49.10;;;;;;5042296;28;20029;-68
2022/12/18 06:49:10;;;;;;;5.88;4.30;;;19.50;49.10;;;;;;5061468;28;20036;-67
2022/12/18 06:51:36;;;;;;;5.25;4.32;;;19.50;49.00;;;;;;5042532;28;20035;-67
2022/12/18 06:54:02;;;;;;;5.68;4.28;;;19.50;49.00;;;;;;5043974;28;20391;-67
2022/12/18 06:56:28;;;;;;;5.47;4.47;;;19.50;49.00;;;;;;5037349;28;20051;-67
2022/12/18 06:58:54;;;;;;;5.68;4.55;;;19.50;49.00;;;;;;5050982;28;20116;-69
2022/12/18 07:01:21;;;;;;;4.90;4.05;;;19.50;48.90;;;;;;5035985;28;20032;-68
2022/12/18 07:03:51;;;;;;;5.07;4.30;;;19.50;48.90;;;;;;5046529;28;20056;-68
2022/12/18 07:06:18;;;;;;;5.50;4.00;;;19.50;49.00;;;;;;5042723;28;20029;-69
2022/12/18 07:08:45;;;;;;;5.65;4.38;;;19.50;49.00;;;;;;5048531;28;20414;-68
2022/12/18 07:11:11;;;;;;;5.47;4.10;;;19.50;49.00;;;;;;5054481;28;20464;-68
2022/12/18 07:13:36;;;;;;;4.97;3.88;;;19.50;49.10;;;;;;5049133;28;20040;-69
2022/12/18 07:16:05;;;;;;;5.70;4.22;;;19.50;49.10;;;;;;5063131;28;20029;-68
2022/12/18 07:18:30;;;;;;;5.10;4.30;;;19.50;49.10;;;;;;5054680;28;20512;-69
2022/12/18 07:20:56;;;;;;;5.15;4.00;;;19.50;49.10;;;;;;5054259;28;20028;-68
2022/12/18 07:23:22;;;;;;;5.38;3.92;;;19.50;49.10;;;;;;5054986;28;20316;-68
2022/12/18 07:25:47;;;;;;;5.13;4.18;;;19.50;49.00;;;;;;5057894;28;20108;-68
2022/12/18 07:28:14;;;;;;;4.97;3.90;;;19.50;49.00;;;;;;5051094;28;20026;-68
2022/12/18 07:30:40;;;;;;;5.10;3.90;;;19.50;49.00;;;;;;5033970;28;20033;-65
2022/12/18 07:33:05;;;;;;;5.15;3.97;;;19.50;49.10;;;;;;5050832;28;20100;-65
2022/12/18 07:35:33;;;;;;;5.57;4.22;;;19.50;49.10;;;;;;5048303;28;20068;-66
2022/12/18 07:37:58;;;;;;;5.43;4.15;;;19.50;49.20;;;;;;5045029;28;20021;-66
2022/12/18 07:40:24;;;;;;;5.30;3.80;;;19.50;49.20;;;;;;5056509;28;20027;-65
2022/12/18 07:42:49;;;;;;;5.60;4.00;;;19.50;49.20;;;;;;5039927;28;20100;-65
2022/12/18 07:45:15;;;;;;;4.53;3.83;;;19.50;49.30;;;;;;5040397;28;20021;-66
2022/12/18 07:47:41;;;;;;;5.20;4.10;;;19.50;49.30;;;;;;5059799;28;20060;-65
2022/12/18 07:50:07;;;;;;;4.70;3.70;;;19.50;49.30;;;;;;5053171;28;20107;-69
2022/12/18 07:52:32;;;;;;;4.95;3.90;;;19.50;49.30;;;;;;5052203;28;20052;-69
2022/12/18 07:54:58;;;;;;;5.18;3.60;;;19.40;49.20;;;;;;5055063;28;20031;-69
2022/12/18 07:57:24;;;;;;;4.93;3.83;;;19.50;49.30;;;;;;5053216;28;20017;-68
2022/12/18 07:59:49;;;;;;;5.38;3.80;;;19.50;49.30;;;;;;5052636;28;20047;-66
2022/12/18 08:02:15;;;;;;;5.45;3.75;;;19.50;49.30;;;;;;5043324;28;20117;-65
2022/12/18 08:04:40;;;;;;;4.97;3.80;;;19.50;49.20;;;;;;5057295;28;20021;-66
2022/12/18 08:07:06;;;;;;;4.80;3.80;;;19.50;49.30;;;;;;5049992;28;20076;-65
2022/12/18 08:09:32;;;;;;;4.85;3.78;;;19.50;49.30;;;;;;5047687;28;20037;-65
2022/12/18 08:11:57;;;;;;;4.25;3.55;;;19.50;49.40;;;;;;5040922;28;20104;-65
2022/12/18 08:14:23;;;;;;;4.45;3.40;;;19.50;49.50;;;;;;5044736;28;20021;-65
2022/12/18 08:16:48;;;;;;;5.47;3.65;;;19.50;49.60;;;;;;5048820;28;20037;-65
2022/12/18 08:19:14;;;;;;;4.50;3.50;;;19.50;49.70;;;;;;5052271;28;20341;-66
2022/12/18 08:21:41;;;;;;;4.68;3.22;;;19.50;49.80;;;;;;5043485;28;20033;-65
2022/12/18 08:24:09;;;;;;;4.20;3.30;;;19.40;49.90;;;;;;5056412;28;20020;-67
2022/12/18 08:26:34;;;;;;;4.80;3.80;;;19.50;50.00;;;;;;5052426;28;20029;-66
2022/12/18 08:29:00;;;;;;;4.90;3.50;;;19.50;50.20;;;;;;5053289;28;20024;-68
2022/12/18 08:31:28;;;;;;;5.03;3.95;;;19.50;50.30;;;;;;5044861;28;20033;-69
2022/12/18 08:33:54;;;;;;;4.57;3.55;;;19.50;50.40;;;;;;5058719;28;20024;-66
2022/12/18 08:36:21;;;;;;;4.55;3.60;;;19.50;50.60;;;;;;5057583;28;20025;-65
2022/12/18 08:38:47;;;;;;;6.68;4.38;;;19.50;50.60;;;;;;5055719;28;20025;-65
2022/12/18 08:41:14;;;;;;;6.75;4.72;;;19.40;50.70;;;;;;5059644;28;20519;-65
2022/12/18 08:46:27;;;;;;;8.30;5.88;;;19.50;50.80;;;;;;5049139;28;20387;-65
2022/12/18 08:48:54;;;;;;;9.27;6.03;;;19.50;50.80;;;;;;5055277;28;20024;-66
2022/12/18 08:51:20;;;;;;;9.73;6.32;;;19.50;50.80;;;;;;5053284;28;20024;-66
2022/12/18 08:53:46;;;;;;;8.98;5.82;;;19.40;50.80;;;;;;5043042;28;20037;-66
2022/12/18 08:56:13;;;;;;;10.00;6.50;;;19.50;50.80;;;;;;5052446;28;20521;-65
2022/12/18 08:58:38;;;;;;;10.27;7.00;;;19.50;50.80;;;;;;5038442;28;20029;-65
2022/12/18 09:01:07;;;;;;;11.32;6.90;;;19.40;50.80;;;;;;5049254;28;20020;-67
2022/12/18 09:03:33;;;;;;;9.90;6.88;;;19.40;50.80;;;;;;5053685;28;20087;-66
2022/12/18 09:05:59;;;;;;;11.20;6.88;;;19.50;50.90;;;;;;5057149;28;20030;-67
2022/12/18 09:08:25;;;;;;;10.43;6.97;;;19.40;50.90;;;;;;5052844;28;20491;-66
2022/12/18 09:10:51;;;;;;;9.13;6.40;;;19.40;50.90;;;;;;5057733;28;20029;-66
2022/12/18 09:13:17;;;;;;;10.65;6.85;;;19.40;50.90;;;;;;5052991;28;20473;-67
2022/12/18 09:15:52;;;;;;;10.40;7.03;;;19.40;50.90;;;;;;5044345;28;20022;-66
2022/12/18 09:18:20;;;;;;;11.77;7.32;;;19.40;50.90;;;;;;5055093;28;20033;-67
2022/12/18 09:20:45;;;;;;;11.35;7.22;;;19.40;50.90;;;;;;5050649;28;20029;-66
2022/12/18 09:23:11;;;;;;;10.20;6.88;;;19.40;50.80;;;;;;5051074;28;20095;-66
2022/12/18 09:25:38;;;;;;;9.70;7.15;;;19.40;50.90;;;;;;5053352;28;20473;-66
2022/12/18 09:28:09;;;;;;;12.35;7.93;;;19.40;50.80;;;;;;5044247;28;20029;-67
2022/12/18 09:30:38;;;;;;;10.20;6.95;;;19.40;50.90;;;;;;5055514;28;20465;-67
2022/12/18 09:33:03;;;;;;;11.40;7.00;;;19.40;51.30;;;;;;5051091;28;20033;-66
2022/12/18 09:35:29;;;;;;;10.40;7.13;;;19.40;50.80;;;;;;5048662;28;20034;-66
2022/12/18 09:37:54;;;;;;;9.88;7.20;;;19.40;50.80;;;;;;5038804;28;20029;-66
2022/12/18 09:40:23;;;;;;;10.18;6.57;;;19.40;50.80;;;;;;5052471;28;20021;-66
2022/12/18 09:42:55;;;;;;;9.88;7.00;;;19.40;50.80;;;;;;5057293;28;20036;-66
2022/12/18 09:45:22;;;;;;;11.05;6.90;;;19.40;50.80;;;;;;5039486;28;20109;-66
2022/12/18 09:47:48;;;;;;;10.68;6.65;;;19.40;50.80;;;;;;5037864;28;20020;-66
2022/12/18 09:50:31;;;;;;;9.40;6.82;;;19.40;50.80;;;;;;5048823;28;20051;-68
2022/12/18 09:53:04;;;;;;;10.27;6.88;;;19.30;50.80;;;;;;5055559;28;20037;-67
2022/12/18 09:55:45;;;;;;;12.25;7.20;;;19.40;50.80;;;;;;5055741;28;20155;-66
2022/12/18 09:58:24;;;;;;;9.38;6.63;;;19.30;50.70;;;;;;5053334;28;20029;-67
2022/12/18 10:00:52;;;;;;;9.60;6.55;;;19.30;51.10;;;;;;5048915;28;20472;-67
2022/12/18 10:03:18;;;;;;;10.43;6.43;;;19.40;50.70;;;;;;5052425;28;20107;-67
2022/12/18 10:06:06;;;;;;;9.70;6.60;;;19.30;50.70;;;;;;5058917;28;20104;-68
2022/12/18 10:08:53;;;;;;;9.73;6.63;;;19.30;50.60;;;;;;5054908;28;20495;-66
2022/12/18 10:11:34;;;;;;;9.48;6.40;;;19.30;50.60;;;;;;5051724;28;20095;-67
2022/12/18 10:14:02;;;;;;;10.73;6.75;;;19.30;50.60;;;;;;5027574;28;20024;-66
2022/12/18 10:17:06;;;;;;;10.63;6.70;;;19.30;50.60;;;;;;5041579;28;20445;-66
2022/12/18 10:19:39;;;;;;;9.98;6.72;;;19.30;50.60;;;;;;5057480;28;20040;-67
2022/12/18 10:22:29;;;;;;;9.30;6.97;;;19.30;50.60;;;;;;5048679;28;20042;-66
2022/12/18 10:25:14;;;;;;;10.60;6.90;;;19.30;50.60;;;;;;5049166;28;20021;-66
2022/12/18 10:27:39;;;;;;;9.70;6.32;;;19.30;50.60;;;;;;5047045;28;20093;-66
2022/12/18 10:30:25;;;;;;;9.25;5.93;;;19.30;50.60;;;;;;5046474;28;20171;-67
2022/12/18 10:32:51;;;;;;;9.68;6.38;;;19.30;50.60;;;;;;5053524;28;20035;-66
2022/12/18 10:35:26;;;;;;;9.70;6.78;;;19.40;50.60;;;;;;5038054;28;20029;-67
2022/12/18 10:38:23;;;;;;;9.15;6.20;;;19.30;50.60;;;;;;5050081;28;20492;-66
2022/12/18 10:40:52;;;;;;;9.25;6.32;;;19.30;50.50;;;;;;5045509;28;20082;-67
2022/12/18 10:43:32;;;;;;;8.33;6.27;;;19.30;50.60;;;;;;5057377;28;20048;-67
2022/12/18 10:46:02;;;;;;;9.02;6.15;;;19.30;50.50;;;;;;5055602;28;20020;-67
2022/12/18 10:48:29;;;;;;;8.65;5.97;;;19.30;50.50;;;;;;5039308;28;20037;-67
2022/12/18 10:50:55;;;;;;;9.35;6.07;;;19.30;50.50;;;;;;5052789;28;20056;-67
2022/12/18 10:53:29;;;;;;;9.98;6.88;;;19.30;50.50;;;;;;5037353;28;20122;-67
2022/12/18 10:56:00;;;;;;;9.82;6.00;;;19.30;50.50;;;;;;5056284;28;20036;-66
2022/12/18 10:58:28;;;;;;;9.30;5.72;;;19.30;50.40;;;;;;5046380;28;20037;-67
2022/12/18 11:01:15;;;;;;;9.80;6.28;;;19.30;50.50;;;;;;5050807;28;20562;-67
2022/12/18 11:03:54;;;;;;;8.43;5.57;;;19.30;50.40;;;;;;5046209;28;20040;-67
2022/12/18 11:06:24;;;;;;;11.05;6.35;;;19.30;50.40;;;;;;5043030;28;20453;-67
2022/12/18 11:09:04;;;;;;;8.25;5.85;;;19.30;50.40;;;;;;5040599;28;20025;-66
2022/12/18 11:11:32;;;;;;;7.72;6.10;;;19.30;50.40;;;;;;5036434;28;20021;-67
2022/12/18 11:14:19;;;;;;;8.40;5.72;;;19.30;50.40;;;;;;5060620;28;20473;-67
2022/12/18 11:16:47;;;;;;;8.60;5.70;;;19.30;50.40;;;;;;5033988;28;20473;-67
2022/12/18 11:19:25;;;;;;;7.80;5.60;;;19.30;50.50;;;;;;5046174;28;20024;-67
2022/12/18 11:21:51;;;;;;;7.70;5.22;;;19.30;50.40;;;;;;5053278;28;20024;-69
2022/12/18 11:24:28;;;;;;;7.53;5.18;;;19.30;51.10;;;;;;5048803;28;20052;-69
2022/12/18 11:26:56;;;;;;;7.45;4.95;;;19.40;51.50;;;;;;5052534;28;20028;-67
2022/12/18 11:29:39;;;;;;;7.15;4.60;;;19.40;51.40;;;;;;5044527;28;20029;-67
2022/12/18 11:32:14;;;;;;;7.35;5.07;;;19.40;51.50;;;;;;5055617;28;20025;-67
2022/12/18 11:34:42;;;;;;;6.78;4.88;;;19.50;51.40;;;;;;5044445;28;20026;-68
2022/12/18 11:37:11;;;;;;;6.82;5.05;;;19.50;51.40;;;;;;5044236;28;20020;-67
2022/12/18 11:39:51;;;;;;;6.55;4.95;;;19.50;51.20;;;;;;5050535;28;20028;-68
2022/12/18 11:42:38;;;;;;;8.98;5.93;;;19.60;51.10;;;;;;5050498;28;20418;-67
2022/12/18 11:45:26;;;;;;;8.48;5.35;;;19.60;51.00;;;;;;5057297;28;20495;-67
2022/12/18 11:48:00;;;;;;;7.68;5.45;;;19.70;50.90;;;;;;5054190;28;20493;-68
2022/12/18 11:50:36;;;;;;;7.97;5.68;;;19.80;50.80;;;;;;5051631;28;20017;-68
2022/12/18 11:53:02;;;;;;;7.15;5.65;;;19.80;50.80;;;;;;5051767;28;20035;-68
2022/12/18 11:56:15;;;;;;;7.47;5.57;;;19.80;50.60;;;;;;5051683;28;20021;-68
2022/12/18 11:59:18;;;;;;;7.85;5.50;;;19.80;50.50;;;;;;4991922;28;20464;-69
2022/12/18 12:01:54;;;;;;;8.13;5.85;;;19.80;50.40;;;;;;5054503;28;20385;-67
2022/12/18 12:04:57;;;;;;;7.50;5.15;;;19.90;50.40;;;;;;5053461;28;20384;-67
2022/12/18 12:07:36;;;;;;;7.40;4.80;;;19.90;50.80;;;;;;5037190;28;20075;-67
2022/12/18 12:10:24;;;;;;;6.90;4.32;;;19.90;51.00;;;;;;5058520;28;20445;-67
2022/12/18 12:13:23;;;;;;;5.78;4.35;;;19.80;50.90;;;;;;5030144;28;20064;-68
2022/12/18 12:16:00;;;;;;;6.30;4.17;;;19.80;50.80;;;;;;5041473;28;20394;-67
2022/12/18 12:18:28;;;;;;;6.15;4.50;;;19.80;50.80;;;;;;5048831;28;20017;-67
2022/12/18 12:21:03;;;;;;;6.25;4.63;;;19.80;50.80;;;;;;5055936;28;20028;-68
2022/12/18 12:24:02;;;;;;;6.25;4.38;;;19.80;50.70;;;;;;5055870;28;20036;-67
2022/12/18 12:27:12;;;;;;;6.97;4.10;;;19.80;50.70;;;;;;5025310;28;20099;-67
2022/12/18 12:29:57;;;;;;;6.28;4.15;;;19.80;50.70;;;;;;5007881;28;20048;-66
2022/12/18 12:32:44;;;;;;;5.95;3.95;;;19.80;50.70;;;;;;5049585;28;20036;-67
2022/12/18 12:35:37;;;;;;;5.72;4.22;;;19.80;50.70;;;;;;5055222;28;20480;-67
2022/12/18 12:38:09;;;;;;;6.13;4.30;;;19.80;50.60;;;;;;5054858;28;20056;-67
2022/12/18 12:40:43;;;;;;;7.05;4.30;;;19.80;50.60;;;;;;5057535;28;20032;-68
2022/12/18 12:43:25;;;;;;;5.53;4.15;;;19.80;50.60;;;;;;5051979;28;20389;-67
2022/12/18 12:45:56;;;;;;;6.03;4.43;;;19.80;50.60;;;;;;5054577;28;20047;-67
2022/12/18 12:48:32;;;;;;;7.05;4.32;;;19.80;50.50;;;;;;5059946;28;20503;-68
2022/12/18 12:51:00;;;;;;;5.82;4.18;;;19.80;50.50;;;;;;5043911;28;20033;-67
2022/12/18 12:53:34;;;;;;;5.40;4.15;;;19.80;50.50;;;;;;5058363;28;20036;-67
2022/12/18 12:56:00;;;;;;;7.22;4.40;;;19.70;50.40;;;;;;5051048;28;20040;-67
2022/12/18 12:58:59;;;;;;;5.55;4.50;;;19.80;50.40;;;;;;5050019;28;20029;-67
2022/12/18 13:01:34;;;;;;;6.65;4.15;;;19.70;50.30;;;;;;5052234;28;20080;-68
2022/12/18 13:04:17;;;;;;;5.75;4.32;;;19.70;50.30;;;;;;5049809;28;20029;-68
2022/12/18 13:07:03;;;;;;;5.88;4.30;;;19.80;50.30;;;;;;5040753;28;20116;-67
2022/12/18 13:09:33;;;;;;;6.07;4.20;;;19.70;50.20;;;;;;5048820;28;20029;-67
2022/12/18 13:14:48;;;;;;;5.72;4.18;;;19.70;50.20;;;;;;5054403;28;20047;-67
2022/12/18 13:17:31;;;;;;;6.18;4.03;;;19.70;50.20;;;;;;5056804;28;20037;-67